sensor_id;sensor_type;location;lat;lon;timestamp;P1;durP1;ratioP1;P2;durP2;ratioP2
30723;SDS011;17473;52.286;20.930;2022-10-31T00:01:24;25.90;;;15.30;;
30723;SDS011;17473;52.286;20.930;2022-10-31T00:04:04;21.17;;;14.32;;
30723;SDS011;17473;52.286;20.930;2022-10-31T00:06:32;20.52;;;14.00;;
30723;SDS011;17473;52.286;20.930;2022-10-31T00:08:59;19.35;;;11.68;;
30723;SDS011;17473;52.286;20.930;2022-10-31T00:11:29;22.10;;;13.50;;
30723;SDS011;17473;52.286;20.930;2022-10-31T00:13:56;19.40;;;12.13;;
30723;SDS011;17473;52.286;20.930;2022-10-31T00:16:25;20.93;;;13.10;;
30723;SDS011;17473;52.286;20.930;2022-10-31T00:18:54;22.65;;;14.25;;
30723;SDS011;17473;52.286;20.930;2022-10-31T00:21:29;22.50;;;14.03;;
30723;SDS011;17473;52.286;20.930;2022-10-31T00:23:57;21.48;;;14.38;;
30723;SDS011;17473;52.286;20.930;2022-10-31T00:26:29;23.17;;;14.90;;
30723;SDS011;17473;52.286;20.930;2022-10-31T00:28:58;28.02;;;14.35;;
30723;SDS011;17473;52.286;20.930;2022-10-31T00:31:26;21.40;;;13.67;;
30723;SDS011;17473;52.286;20.930;2022-10-31T00:33:53;28.65;;;15.05;;
30723;SDS011;17473;52.286;20.930;2022-10-31T00:36:20;22.73;;;14.13;;
30723;SDS011;17473;52.286;20.930;2022-10-31T00:38:47;17.40;;;10.77;;
30723;SDS011;17473;52.286;20.930;2022-10-31T00:41:15;20.27;;;13.25;;
30723;SDS011;17473;52.286;20.930;2022-10-31T00:43:43;19.33;;;12.27;;
30723;SDS011;17473;52.286;20.930;2022-10-31T00:46:11;17.50;;;11.23;;
30723;SDS011;17473;52.286;20.930;2022-10-31T00:48:39;24.23;;;12.52;;
30723;SDS011;17473;52.286;20.930;2022-10-31T00:51:06;26.17;;;14.18;;
30723;SDS011;17473;52.286;20.930;2022-10-31T00:53:33;22.88;;;13.88;;
30723;SDS011;17473;52.286;20.930;2022-10-31T00:56:01;20.77;;;13.70;;
30723;SDS011;17473;52.286;20.930;2022-10-31T00:58:28;24.65;;;14.82;;
30723;SDS011;17473;52.286;20.930;2022-10-31T01:00:55;23.67;;;14.70;;
30723;SDS011;17473;52.286;20.930;2022-10-31T01:03:26;23.13;;;14.73;;
30723;SDS011;17473;52.286;20.930;2022-10-31T01:06:01;25.67;;;17.00;;
30723;SDS011;17473;52.286;20.930;2022-10-31T01:08:33;28.20;;;15.52;;
30723;SDS011;17473;52.286;20.930;2022-10-31T01:11:10;25.35;;;14.30;;
30723;SDS011;17473;52.286;20.930;2022-10-31T01:13:40;22.00;;;15.20;;
30723;SDS011;17473;52.286;20.930;2022-10-31T01:16:10;29.87;;;15.57;;
30723;SDS011;17473;52.286;20.930;2022-10-31T01:18:40;24.25;;;13.88;;
30723;SDS011;17473;52.286;20.930;2022-10-31T01:21:14;26.33;;;15.90;;
30723;SDS011;17473;52.286;20.930;2022-10-31T01:23:44;25.92;;;15.45;;
30723;SDS011;17473;52.286;20.930;2022-10-31T01:26:13;27.55;;;15.65;;
30723;SDS011;17473;52.286;20.930;2022-10-31T01:28:50;23.50;;;15.85;;
30723;SDS011;17473;52.286;20.930;2022-10-31T01:31:23;30.47;;;16.83;;
30723;SDS011;17473;52.286;20.930;2022-10-31T01:33:55;29.27;;;16.37;;
30723;SDS011;17473;52.286;20.930;2022-10-31T01:36:32;26.00;;;16.10;;
30723;SDS011;17473;52.286;20.930;2022-10-31T01:39:03;23.67;;;15.23;;
30723;SDS011;17473;52.286;20.930;2022-10-31T01:41:34;19.13;;;14.13;;
30723;SDS011;17473;52.286;20.930;2022-10-31T01:49:34;20.27;;;12.52;;
30723;SDS011;17473;52.286;20.930;2022-10-31T01:52:09;17.13;;;11.63;;
30723;SDS011;17473;52.286;20.930;2022-10-31T01:55:00;16.85;;;10.55;;
30723;SDS011;17473;52.286;20.930;2022-10-31T01:57:36;16.70;;;11.03;;
30723;SDS011;17473;52.286;20.930;2022-10-31T02:00:07;20.60;;;11.83;;
30723;SDS011;17473;52.286;20.930;2022-10-31T02:02:36;21.77;;;12.32;;
30723;SDS011;17473;52.286;20.930;2022-10-31T02:05:05;20.52;;;12.93;;
30723;SDS011;17473;52.286;20.930;2022-10-31T02:07:40;16.57;;;12.10;;
30723;SDS011;17473;52.286;20.930;2022-10-31T02:10:29;17.23;;;12.10;;
30723;SDS011;17473;52.286;20.930;2022-10-31T02:12:58;22.57;;;13.27;;
30723;SDS011;17473;52.286;20.930;2022-10-31T02:15:29;21.58;;;13.07;;
30723;SDS011;17473;52.286;20.930;2022-10-31T02:17:58;20.80;;;13.05;;
30723;SDS011;17473;52.286;20.930;2022-10-31T02:20:52;25.30;;;15.32;;
30723;SDS011;17473;52.286;20.930;2022-10-31T02:24:07;23.77;;;15.50;;
30723;SDS011;17473;52.286;20.930;2022-10-31T02:41:37;23.73;;;15.82;;
30723;SDS011;17473;52.286;20.930;2022-10-31T02:47:27;25.70;;;15.70;;
30723;SDS011;17473;52.286;20.930;2022-10-31T02:50:12;26.27;;;16.70;;
30723;SDS011;17473;52.286;20.930;2022-10-31T02:52:52;23.47;;;16.30;;
30723;SDS011;17473;52.286;20.930;2022-10-31T02:57:54;25.15;;;15.57;;
30723;SDS011;17473;52.286;20.930;2022-10-31T03:00:32;22.80;;;16.60;;
30723;SDS011;17473;52.286;20.930;2022-10-31T03:03:47;26.20;;;16.63;;
30723;SDS011;17473;52.286;20.930;2022-10-31T03:09:25;32.13;;;17.13;;
30723;SDS011;17473;52.286;20.930;2022-10-31T03:12:06;25.70;;;17.20;;
30723;SDS011;17473;52.286;20.930;2022-10-31T03:14:48;28.73;;;16.70;;
30723;SDS011;17473;52.286;20.930;2022-10-31T03:17:27;25.40;;;15.53;;
30723;SDS011;17473;52.286;20.930;2022-10-31T03:20:04;26.55;;;14.98;;
30723;SDS011;17473;52.286;20.930;2022-10-31T03:22:35;27.48;;;16.85;;
30723;SDS011;17473;52.286;20.930;2022-10-31T03:25:05;23.52;;;16.05;;
30723;SDS011;17473;52.286;20.930;2022-10-31T03:27:34;22.42;;;14.32;;
30723;SDS011;17473;52.286;20.930;2022-10-31T03:30:04;22.87;;;15.00;;
30723;SDS011;17473;52.286;20.930;2022-10-31T03:32:41;25.05;;;15.85;;
30723;SDS011;17473;52.286;20.930;2022-10-31T03:35:19;26.77;;;15.20;;
30723;SDS011;17473;52.286;20.930;2022-10-31T03:37:49;22.38;;;14.73;;
30723;SDS011;17473;52.286;20.930;2022-10-31T03:40:20;22.97;;;14.27;;
30723;SDS011;17473;52.286;20.930;2022-10-31T03:43:13;21.60;;;14.40;;
30723;SDS011;17473;52.286;20.930;2022-10-31T03:45:46;20.17;;;13.90;;
30723;SDS011;17473;52.286;20.930;2022-10-31T03:48:14;20.07;;;13.17;;
30723;SDS011;17473;52.286;20.930;2022-10-31T03:53:52;24.77;;;15.37;;
30723;SDS011;17473;52.286;20.930;2022-10-31T03:59:12;23.57;;;14.63;;
30723;SDS011;17473;52.286;20.930;2022-10-31T04:01:47;22.97;;;14.10;;
30723;SDS011;17473;52.286;20.930;2022-10-31T04:04:18;21.40;;;13.23;;
30723;SDS011;17473;52.286;20.930;2022-10-31T04:06:46;20.98;;;13.70;;
30723;SDS011;17473;52.286;20.930;2022-10-31T04:09:15;20.57;;;14.67;;
30723;SDS011;17473;52.286;20.930;2022-10-31T04:11:46;21.23;;;14.40;;
30723;SDS011;17473;52.286;20.930;2022-10-31T04:14:17;23.47;;;15.17;;
30723;SDS011;17473;52.286;20.930;2022-10-31T04:16:44;21.13;;;14.13;;
30723;SDS011;17473;52.286;20.930;2022-10-31T04:19:12;24.70;;;15.33;;
30723;SDS011;17473;52.286;20.930;2022-10-31T04:21:40;23.10;;;14.93;;
30723;SDS011;17473;52.286;20.930;2022-10-31T04:24:09;26.85;;;14.30;;
30723;SDS011;17473;52.286;20.930;2022-10-31T04:26:37;22.63;;;15.33;;
30723;SDS011;17473;52.286;20.930;2022-10-31T04:29:04;21.42;;;14.98;;
30723;SDS011;17473;52.286;20.930;2022-10-31T04:31:31;21.37;;;14.83;;
30723;SDS011;17473;52.286;20.930;2022-10-31T04:33:58;29.00;;;15.60;;
30723;SDS011;17473;52.286;20.930;2022-10-31T04:36:25;26.43;;;15.50;;
30723;SDS011;17473;52.286;20.930;2022-10-31T04:38:52;23.90;;;15.88;;
30723;SDS011;17473;52.286;20.930;2022-10-31T04:41:19;23.77;;;15.37;;
30723;SDS011;17473;52.286;20.930;2022-10-31T04:43:46;24.63;;;15.50;;
30723;SDS011;17473;52.286;20.930;2022-10-31T04:46:13;25.00;;;15.40;;
30723;SDS011;17473;52.286;20.930;2022-10-31T04:48:40;23.38;;;15.07;;
30723;SDS011;17473;52.286;20.930;2022-10-31T04:51:07;24.33;;;15.17;;
30723;SDS011;17473;52.286;20.930;2022-10-31T04:53:34;22.50;;;15.17;;
30723;SDS011;17473;52.286;20.930;2022-10-31T04:56:01;30.93;;;17.73;;
30723;SDS011;17473;52.286;20.930;2022-10-31T04:58:28;27.40;;;16.43;;
30723;SDS011;17473;52.286;20.930;2022-10-31T05:00:56;25.10;;;16.80;;
30723;SDS011;17473;52.286;20.930;2022-10-31T05:03:23;26.03;;;16.07;;
30723;SDS011;17473;52.286;20.930;2022-10-31T05:05:50;26.40;;;17.33;;
30723;SDS011;17473;52.286;20.930;2022-10-31T05:08:17;25.53;;;16.63;;
30723;SDS011;17473;52.286;20.930;2022-10-31T05:10:44;23.70;;;17.23;;
30723;SDS011;17473;52.286;20.930;2022-10-31T05:13:11;30.13;;;17.73;;
30723;SDS011;17473;52.286;20.930;2022-10-31T05:15:38;24.53;;;16.33;;
30723;SDS011;17473;52.286;20.930;2022-10-31T05:18:05;30.00;;;18.13;;
30723;SDS011;17473;52.286;20.930;2022-10-31T05:20:32;25.87;;;17.33;;
30723;SDS011;17473;52.286;20.930;2022-10-31T05:22:59;30.03;;;19.03;;
30723;SDS011;17473;52.286;20.930;2022-10-31T05:25:27;27.17;;;17.73;;
30723;SDS011;17473;52.286;20.930;2022-10-31T05:27:55;28.43;;;18.33;;
30723;SDS011;17473;52.286;20.930;2022-10-31T05:30:27;32.00;;;17.83;;
30723;SDS011;17473;52.286;20.930;2022-10-31T05:32:58;29.70;;;19.37;;
30723;SDS011;17473;52.286;20.930;2022-10-31T05:35:27;28.23;;;19.20;;
30723;SDS011;17473;52.286;20.930;2022-10-31T05:37:57;31.83;;;19.60;;
30723;SDS011;17473;52.286;20.930;2022-10-31T05:40:25;31.50;;;20.10;;
30723;SDS011;17473;52.286;20.930;2022-10-31T05:42:54;31.05;;;20.88;;
30723;SDS011;17473;52.286;20.930;2022-10-31T05:45:23;32.13;;;20.00;;
30723;SDS011;17473;52.286;20.930;2022-10-31T05:47:54;30.73;;;19.40;;
30723;SDS011;17473;52.286;20.930;2022-10-31T05:50:25;32.53;;;20.93;;
30723;SDS011;17473;52.286;20.930;2022-10-31T05:52:58;32.97;;;20.53;;
30723;SDS011;17473;52.286;20.930;2022-10-31T05:55:28;34.90;;;21.30;;
30723;SDS011;17473;52.286;20.930;2022-10-31T05:57:55;37.70;;;22.20;;
30723;SDS011;17473;52.286;20.930;2022-10-31T06:00:23;34.63;;;22.83;;
30723;SDS011;17473;52.286;20.930;2022-10-31T06:03:01;33.60;;;22.63;;
30723;SDS011;17473;52.286;20.930;2022-10-31T06:05:31;37.65;;;24.05;;
30723;SDS011;17473;52.286;20.930;2022-10-31T06:07:58;36.43;;;24.50;;
30723;SDS011;17473;52.286;20.930;2022-10-31T06:10:26;36.60;;;24.85;;
30723;SDS011;17473;52.286;20.930;2022-10-31T06:12:54;39.30;;;24.70;;
30723;SDS011;17473;52.286;20.930;2022-10-31T06:15:21;37.03;;;26.60;;
30723;SDS011;17473;52.286;20.930;2022-10-31T06:17:59;37.27;;;23.93;;
30723;SDS011;17473;52.286;20.930;2022-10-31T06:20:29;36.93;;;23.73;;
30723;SDS011;17473;52.286;20.930;2022-10-31T06:22:57;38.83;;;25.63;;
30723;SDS011;17473;52.286;20.930;2022-10-31T06:25:25;41.77;;;25.60;;
30723;SDS011;17473;52.286;20.930;2022-10-31T06:27:52;40.60;;;25.33;;
30723;SDS011;17473;52.286;20.930;2022-10-31T06:30:19;37.27;;;25.37;;
30723;SDS011;17473;52.286;20.930;2022-10-31T06:32:46;51.80;;;28.63;;
30723;SDS011;17473;52.286;20.930;2022-10-31T06:35:13;49.50;;;28.03;;
30723;SDS011;17473;52.286;20.930;2022-10-31T06:37:40;48.80;;;25.93;;
30723;SDS011;17473;52.286;20.930;2022-10-31T06:40:11;44.20;;;25.70;;
30723;SDS011;17473;52.286;20.930;2022-10-31T06:42:38;42.40;;;25.63;;
30723;SDS011;17473;52.286;20.930;2022-10-31T06:45:05;41.13;;;26.45;;
30723;SDS011;17473;52.286;20.930;2022-10-31T06:47:33;38.55;;;24.65;;
30723;SDS011;17473;52.286;20.930;2022-10-31T06:50:10;40.85;;;25.88;;
30723;SDS011;17473;52.286;20.930;2022-10-31T06:52:37;35.03;;;23.83;;
30723;SDS011;17473;52.286;20.930;2022-10-31T06:55:04;34.80;;;23.48;;
30723;SDS011;17473;52.286;20.930;2022-10-31T06:57:32;35.13;;;23.75;;
30723;SDS011;17473;52.286;20.930;2022-10-31T06:59:58;35.47;;;24.38;;
30723;SDS011;17473;52.286;20.930;2022-10-31T07:02:25;39.25;;;23.52;;
30723;SDS011;17473;52.286;20.930;2022-10-31T07:04:52;34.95;;;22.38;;
30723;SDS011;17473;52.286;20.930;2022-10-31T07:07:19;37.08;;;23.15;;
30723;SDS011;17473;52.286;20.930;2022-10-31T07:09:47;32.45;;;23.25;;
30723;SDS011;17473;52.286;20.930;2022-10-31T07:12:15;34.65;;;22.58;;
30723;SDS011;17473;52.286;20.930;2022-10-31T07:14:42;33.83;;;21.92;;
30723;SDS011;17473;52.286;20.930;2022-10-31T07:17:09;37.95;;;23.42;;
30723;SDS011;17473;52.286;20.930;2022-10-31T07:19:36;36.42;;;23.27;;
30723;SDS011;17473;52.286;20.930;2022-10-31T07:22:03;40.78;;;25.02;;
30723;SDS011;17473;52.286;20.930;2022-10-31T07:24:30;37.97;;;23.80;;
30723;SDS011;17473;52.286;20.930;2022-10-31T07:26:57;35.70;;;23.23;;
30723;SDS011;17473;52.286;20.930;2022-10-31T07:29:29;47.97;;;24.55;;
30723;SDS011;17473;52.286;20.930;2022-10-31T07:31:56;37.05;;;23.85;;
30723;SDS011;17473;52.286;20.930;2022-10-31T07:34:23;35.60;;;24.42;;
30723;SDS011;17473;52.286;20.930;2022-10-31T07:36:50;34.60;;;24.02;;
30723;SDS011;17473;52.286;20.930;2022-10-31T07:39:18;35.60;;;24.63;;
30723;SDS011;17473;52.286;20.930;2022-10-31T07:41:45;35.72;;;25.02;;
30723;SDS011;17473;52.286;20.930;2022-10-31T07:44:11;35.38;;;23.27;;
30723;SDS011;17473;52.286;20.930;2022-10-31T07:46:38;36.60;;;23.35;;
30723;SDS011;17473;52.286;20.930;2022-10-31T07:49:05;37.53;;;24.23;;
30723;SDS011;17473;52.286;20.930;2022-10-31T07:51:33;35.95;;;24.15;;
30723;SDS011;17473;52.286;20.930;2022-10-31T07:54:00;33.42;;;22.50;;
30723;SDS011;17473;52.286;20.930;2022-10-31T07:56:27;33.30;;;22.73;;
30723;SDS011;17473;52.286;20.930;2022-10-31T07:58:54;39.85;;;23.83;;
30723;SDS011;17473;52.286;20.930;2022-10-31T08:01:21;34.75;;;22.27;;
30723;SDS011;17473;52.286;20.930;2022-10-31T08:03:48;34.83;;;22.42;;
30723;SDS011;17473;52.286;20.930;2022-10-31T08:06:15;36.03;;;22.58;;
30723;SDS011;17473;52.286;20.930;2022-10-31T08:08:42;31.80;;;21.25;;
30723;SDS011;17473;52.286;20.930;2022-10-31T08:11:08;30.35;;;21.17;;
30723;SDS011;17473;52.286;20.930;2022-10-31T08:13:36;34.25;;;20.60;;
30723;SDS011;17473;52.286;20.930;2022-10-31T08:16:03;35.42;;;22.05;;
30723;SDS011;17473;52.286;20.930;2022-10-31T08:18:30;36.20;;;21.65;;
30723;SDS011;17473;52.286;20.930;2022-10-31T08:20:58;31.27;;;21.42;;
30723;SDS011;17473;52.286;20.930;2022-10-31T08:23:25;35.42;;;22.98;;
30723;SDS011;17473;52.286;20.930;2022-10-31T08:25:51;36.83;;;23.33;;
30723;SDS011;17473;52.286;20.930;2022-10-31T08:28:18;34.80;;;22.70;;
30723;SDS011;17473;52.286;20.930;2022-10-31T08:30:45;36.67;;;22.73;;
30723;SDS011;17473;52.286;20.930;2022-10-31T08:33:16;37.97;;;23.73;;
30723;SDS011;17473;52.286;20.930;2022-10-31T08:35:44;36.13;;;23.13;;
30723;SDS011;17473;52.286;20.930;2022-10-31T08:38:12;39.55;;;24.25;;
30723;SDS011;17473;52.286;20.930;2022-10-31T08:40:40;33.35;;;22.73;;
30723;SDS011;17473;52.286;20.930;2022-10-31T08:45:40;32.88;;;22.33;;
30723;SDS011;17473;52.286;20.930;2022-10-31T08:48:10;36.97;;;20.40;;
30723;SDS011;17473;52.286;20.930;2022-10-31T08:50:42;32.47;;;20.08;;
30723;SDS011;17473;52.286;20.930;2022-10-31T08:53:12;33.20;;;20.17;;
30723;SDS011;17473;52.286;20.930;2022-10-31T08:55:45;38.22;;;19.33;;
30723;SDS011;17473;52.286;20.930;2022-10-31T08:58:17;27.40;;;17.73;;
30723;SDS011;17473;52.286;20.930;2022-10-31T09:00:46;30.38;;;18.02;;
30723;SDS011;17473;52.286;20.930;2022-10-31T09:03:19;27.42;;;17.83;;
30723;SDS011;17473;52.286;20.930;2022-10-31T09:05:49;31.02;;;18.40;;
30723;SDS011;17473;52.286;20.930;2022-10-31T09:08:20;28.25;;;17.90;;
30723;SDS011;17473;52.286;20.930;2022-10-31T09:10:47;29.15;;;19.30;;
30723;SDS011;17473;52.286;20.930;2022-10-31T09:13:16;31.35;;;18.48;;
30723;SDS011;17473;52.286;20.930;2022-10-31T09:15:46;30.38;;;19.42;;
30723;SDS011;17473;52.286;20.930;2022-10-31T09:18:16;32.60;;;19.13;;
30723;SDS011;17473;52.286;20.930;2022-10-31T09:20:47;35.20;;;19.90;;
30723;SDS011;17473;52.286;20.930;2022-10-31T09:23:19;27.35;;;18.30;;
30723;SDS011;17473;52.286;20.930;2022-10-31T09:25:50;30.98;;;18.58;;
30723;SDS011;17473;52.286;20.930;2022-10-31T09:28:20;33.13;;;18.85;;
30723;SDS011;17473;52.286;20.930;2022-10-31T09:30:50;31.15;;;19.00;;
30723;SDS011;17473;52.286;20.930;2022-10-31T09:33:19;31.90;;;20.13;;
30723;SDS011;17473;52.286;20.930;2022-10-31T09:35:46;32.53;;;19.40;;
30723;SDS011;17473;52.286;20.930;2022-10-31T09:38:15;34.97;;;19.63;;
30723;SDS011;17473;52.286;20.930;2022-10-31T09:44:04;28.40;;;18.05;;
30723;SDS011;17473;52.286;20.930;2022-10-31T09:50:11;32.80;;;17.75;;
30723;SDS011;17473;52.286;20.930;2022-10-31T09:52:35;30.38;;;18.67;;
30723;SDS011;17473;52.286;20.930;2022-10-31T09:55:15;29.58;;;18.60;;
30723;SDS011;17473;52.286;20.930;2022-10-31T09:57:50;26.13;;;17.08;;
30723;SDS011;17473;52.286;20.930;2022-10-31T10:00:18;27.23;;;17.73;;
30723;SDS011;17473;52.286;20.930;2022-10-31T10:02:59;25.17;;;17.35;;
30723;SDS011;17473;52.286;20.930;2022-10-31T10:05:51;29.73;;;17.92;;
30723;SDS011;17473;52.286;20.930;2022-10-31T10:08:37;26.15;;;17.42;;
30723;SDS011;17473;52.286;20.930;2022-10-31T10:13:37;24.23;;;17.20;;
30723;SDS011;17473;52.286;20.930;2022-10-31T10:21:57;27.25;;;15.90;;
30723;SDS011;17473;52.286;20.930;2022-10-31T10:27:40;21.00;;;15.07;;
30723;SDS011;17473;52.286;20.930;2022-10-31T10:34:01;26.60;;;16.88;;
30723;SDS011;17473;52.286;20.930;2022-10-31T10:39:25;22.92;;;16.15;;
30723;SDS011;17473;52.286;20.930;2022-10-31T10:42:01;25.40;;;16.95;;
30723;SDS011;17473;52.286;20.930;2022-10-31T10:44:57;20.92;;;15.85;;
30723;SDS011;17473;52.286;20.930;2022-10-31T10:47:46;23.75;;;15.88;;
30723;SDS011;17473;52.286;20.930;2022-10-31T10:50:31;23.75;;;16.98;;
30723;SDS011;17473;52.286;20.930;2022-10-31T10:59:30;26.02;;;17.90;;
30723;SDS011;17473;52.286;20.930;2022-10-31T11:01:58;25.45;;;18.77;;
30723;SDS011;17473;52.286;20.930;2022-10-31T11:04:33;30.30;;;18.85;;
30723;SDS011;17473;52.286;20.930;2022-10-31T11:07:03;24.60;;;17.55;;
30723;SDS011;17473;52.286;20.930;2022-10-31T11:09:36;28.27;;;18.88;;
30723;SDS011;17473;52.286;20.930;2022-10-31T11:12:15;29.52;;;19.25;;
30723;SDS011;17473;52.286;20.930;2022-10-31T11:14:50;26.45;;;17.60;;
30723;SDS011;17473;52.286;20.930;2022-10-31T11:17:32;31.02;;;18.05;;
30723;SDS011;17473;52.286;20.930;2022-10-31T11:22:45;27.63;;;16.23;;
30723;SDS011;17473;52.286;20.930;2022-10-31T11:25:20;24.15;;;16.95;;
30723;SDS011;17473;52.286;20.930;2022-10-31T11:27:58;22.27;;;16.58;;
30723;SDS011;17473;52.286;20.930;2022-10-31T11:30:46;26.52;;;16.20;;
30723;SDS011;17473;52.286;20.930;2022-10-31T11:36:13;23.80;;;16.20;;
30723;SDS011;17473;52.286;20.930;2022-10-31T11:38:49;28.15;;;16.92;;
30723;SDS011;17473;52.286;20.930;2022-10-31T11:41:18;30.50;;;18.27;;
30723;SDS011;17473;52.286;20.930;2022-10-31T11:44:05;27.13;;;18.92;;
30723;SDS011;17473;52.286;20.930;2022-10-31T11:46:55;28.75;;;18.92;;
30723;SDS011;17473;52.286;20.930;2022-10-31T11:49:30;25.67;;;18.88;;
30723;SDS011;17473;52.286;20.930;2022-10-31T11:52:13;24.23;;;18.13;;
30723;SDS011;17473;52.286;20.930;2022-10-31T11:54:55;26.63;;;19.52;;
30723;SDS011;17473;52.286;20.930;2022-10-31T11:58:00;27.33;;;19.77;;
30723;SDS011;17473;52.286;20.930;2022-10-31T12:00:30;26.10;;;18.55;;
30723;SDS011;17473;52.286;20.930;2022-10-31T12:03:06;27.73;;;18.65;;
30723;SDS011;17473;52.286;20.930;2022-10-31T12:05:42;26.42;;;19.55;;
30723;SDS011;17473;52.286;20.930;2022-10-31T12:08:12;29.35;;;19.98;;
30723;SDS011;17473;52.286;20.930;2022-10-31T12:30:20;34.40;;;20.02;;
30723;SDS011;17473;52.286;20.930;2022-10-31T12:56:31;29.40;;;19.23;;
30723;SDS011;17473;52.286;20.930;2022-10-31T12:59:29;32.90;;;18.48;;
30723;SDS011;17473;52.286;20.930;2022-10-31T13:02:21;32.53;;;18.80;;
30723;SDS011;17473;52.286;20.930;2022-10-31T13:08:05;30.58;;;18.70;;
30723;SDS011;17473;52.286;20.930;2022-10-31T13:13:27;28.00;;;17.80;;
30723;SDS011;17473;52.286;20.930;2022-10-31T13:16:31;31.20;;;17.85;;
30723;SDS011;17473;52.286;20.930;2022-10-31T13:19:08;29.23;;;17.58;;
30723;SDS011;17473;52.286;20.930;2022-10-31T13:24:58;34.45;;;21.40;;
30723;SDS011;17473;52.286;20.930;2022-10-31T13:27:41;32.85;;;20.17;;
30723;SDS011;17473;52.286;20.930;2022-10-31T13:30:19;29.15;;;20.55;;
30723;SDS011;17473;52.286;20.930;2022-10-31T13:33:01;33.92;;;20.73;;
30723;SDS011;17473;52.286;20.930;2022-10-31T13:38:52;32.40;;;20.05;;
30723;SDS011;17473;52.286;20.930;2022-10-31T13:44:12;31.73;;;20.20;;
30723;SDS011;17473;52.286;20.930;2022-10-31T13:46:50;35.03;;;20.95;;
30723;SDS011;17473;52.286;20.930;2022-10-31T14:02:53;35.45;;;21.45;;
30723;SDS011;17473;52.286;20.930;2022-10-31T14:05:33;37.42;;;23.40;;
30723;SDS011;17473;52.286;20.930;2022-10-31T14:08:02;35.95;;;21.45;;
30723;SDS011;17473;52.286;20.930;2022-10-31T14:10:35;37.42;;;20.80;;
30723;SDS011;17473;52.286;20.930;2022-10-31T14:13:22;37.42;;;22.42;;
30723;SDS011;17473;52.286;20.930;2022-10-31T14:16:01;36.70;;;21.65;;
30723;SDS011;17473;52.286;20.930;2022-10-31T14:18:39;35.78;;;21.75;;
30723;SDS011;17473;52.286;20.930;2022-10-31T14:23:55;33.35;;;21.90;;
30723;SDS011;17473;52.286;20.930;2022-10-31T14:28:57;36.72;;;24.17;;
30723;SDS011;17473;52.286;20.930;2022-10-31T14:31:38;40.70;;;25.52;;
30723;SDS011;17473;52.286;20.930;2022-10-31T14:40:30;43.40;;;26.52;;
30723;SDS011;17473;52.286;20.930;2022-10-31T14:52:50;46.95;;;26.88;;
30723;SDS011;17473;52.286;20.930;2022-10-31T14:55:23;44.47;;;26.73;;
30723;SDS011;17473;52.286;20.930;2022-10-31T14:57:52;41.60;;;25.73;;
30723;SDS011;17473;52.286;20.930;2022-10-31T15:00:25;43.67;;;25.85;;
30723;SDS011;17473;52.286;20.930;2022-10-31T15:05:45;43.30;;;25.25;;
30723;SDS011;17473;52.286;20.930;2022-10-31T15:13:47;38.80;;;23.58;;
30723;SDS011;17473;52.286;20.930;2022-10-31T15:16:32;44.72;;;24.08;;
30723;SDS011;17473;52.286;20.930;2022-10-31T15:19:14;43.03;;;26.08;;
30723;SDS011;17473;52.286;20.930;2022-10-31T15:21:50;48.75;;;25.95;;
30723;SDS011;17473;52.286;20.930;2022-10-31T15:24:19;52.22;;;27.52;;
30723;SDS011;17473;52.286;20.930;2022-10-31T15:26:49;48.08;;;27.85;;
30723;SDS011;17473;52.286;20.930;2022-10-31T15:29:20;46.22;;;28.35;;
30723;SDS011;17473;52.286;20.930;2022-10-31T15:37:10;44.72;;;26.45;;
30723;SDS011;17473;52.286;20.930;2022-10-31T15:39:40;50.30;;;26.95;;
30723;SDS011;17473;52.286;20.930;2022-10-31T15:42:20;54.10;;;28.40;;
30723;SDS011;17473;52.286;20.930;2022-10-31T15:44:59;42.63;;;26.17;;
30723;SDS011;17473;52.286;20.930;2022-10-31T15:47:37;48.55;;;25.90;;
30723;SDS011;17473;52.286;20.930;2022-10-31T15:50:06;47.90;;;27.00;;
30723;SDS011;17473;52.286;20.930;2022-10-31T15:52:48;47.30;;;26.92;;
30723;SDS011;17473;52.286;20.930;2022-10-31T15:57:56;47.80;;;28.25;;
30723;SDS011;17473;52.286;20.930;2022-10-31T16:03:04;59.45;;;30.10;;
30723;SDS011;17473;52.286;20.930;2022-10-31T16:05:43;52.60;;;30.23;;
30723;SDS011;17473;52.286;20.930;2022-10-31T16:08:32;52.67;;;29.10;;
30723;SDS011;17473;52.286;20.930;2022-10-31T16:13:51;50.03;;;29.15;;
30723;SDS011;17473;52.286;20.930;2022-10-31T16:16:20;50.28;;;27.20;;
30723;SDS011;17473;52.286;20.930;2022-10-31T16:19:01;49.15;;;28.23;;
30723;SDS011;17473;52.286;20.930;2022-10-31T16:21:35;54.08;;;27.08;;
30723;SDS011;17473;52.286;20.930;2022-10-31T16:24:10;52.72;;;27.50;;
30723;SDS011;17473;52.286;20.930;2022-10-31T16:26:53;51.83;;;27.60;;
30723;SDS011;17473;52.286;20.930;2022-10-31T16:29:33;54.63;;;28.50;;
30723;SDS011;17473;52.286;20.930;2022-10-31T16:37:58;53.58;;;27.83;;
30723;SDS011;17473;52.286;20.930;2022-10-31T16:40:25;57.08;;;30.67;;
30723;SDS011;17473;52.286;20.930;2022-10-31T16:42:52;55.50;;;29.65;;
30723;SDS011;17473;52.286;20.930;2022-10-31T16:45:21;58.63;;;29.80;;
30723;SDS011;17473;52.286;20.930;2022-10-31T16:47:51;53.03;;;29.67;;
30723;SDS011;17473;52.286;20.930;2022-10-31T16:50:23;48.85;;;26.55;;
30723;SDS011;17473;52.286;20.930;2022-10-31T16:52:53;58.85;;;28.40;;
30723;SDS011;17473;52.286;20.930;2022-10-31T16:56:01;51.42;;;27.13;;
30723;SDS011;17473;52.286;20.930;2022-10-31T16:58:29;51.08;;;27.75;;
30723;SDS011;17473;52.286;20.930;2022-10-31T17:01:03;50.90;;;27.85;;
30723;SDS011;17473;52.286;20.930;2022-10-31T17:03:33;48.20;;;26.30;;
30723;SDS011;17473;52.286;20.930;2022-10-31T17:06:00;52.88;;;27.98;;
30723;SDS011;17473;52.286;20.930;2022-10-31T17:08:27;49.88;;;26.52;;
30723;SDS011;17473;52.286;20.930;2022-10-31T17:10:54;54.17;;;28.80;;
30723;SDS011;17473;52.286;20.930;2022-10-31T17:13:26;51.33;;;27.20;;
30723;SDS011;17473;52.286;20.930;2022-10-31T17:15:59;49.92;;;28.73;;
30723;SDS011;17473;52.286;20.930;2022-10-31T17:18:29;54.17;;;29.10;;
30723;SDS011;17473;52.286;20.930;2022-10-31T17:20:57;55.17;;;27.70;;
30723;SDS011;17473;52.286;20.930;2022-10-31T17:23:26;60.33;;;29.42;;
30723;SDS011;17473;52.286;20.930;2022-10-31T17:25:54;59.67;;;29.58;;
30723;SDS011;17473;52.286;20.930;2022-10-31T17:28:21;55.78;;;28.45;;
30723;SDS011;17473;52.286;20.930;2022-10-31T17:30:50;55.28;;;28.15;;
30723;SDS011;17473;52.286;20.930;2022-10-31T17:33:19;62.75;;;29.08;;
30723;SDS011;17473;52.286;20.930;2022-10-31T17:35:47;63.70;;;29.20;;
30723;SDS011;17473;52.286;20.930;2022-10-31T17:38:13;59.72;;;28.55;;
30723;SDS011;17473;52.286;20.930;2022-10-31T17:40:40;61.17;;;28.95;;
30723;SDS011;17473;52.286;20.930;2022-10-31T17:43:08;66.80;;;30.42;;
30723;SDS011;17473;52.286;20.930;2022-10-31T17:45:40;64.70;;;31.15;;
30723;SDS011;17473;52.286;20.930;2022-10-31T17:48:10;67.78;;;31.40;;
30723;SDS011;17473;52.286;20.930;2022-10-31T17:50:38;65.97;;;30.13;;
30723;SDS011;17473;52.286;20.930;2022-10-31T17:53:05;69.60;;;30.33;;